createdAt,value
2023-04-07T00:01:08.009Z,101005.25
2023-04-07T00:03:33.771Z,101006.38
2023-04-07T00:05:59.566Z,101006.66
2023-04-07T00:08:25.592Z,101011.88
2023-04-07T00:10:51.247Z,101008.31
2023-04-07T00:13:16.901Z,101016.56
2023-04-07T00:15:42.599Z,101012.16
2023-04-07T00:18:08.285Z,101013.81
2023-04-07T00:20:33.955Z,101013.00
2023-04-07T00:22:59.581Z,101007.47
2023-04-07T00:25:25.381Z,101013.00
2023-04-07T00:27:51.058Z,101020.16
2023-04-07T00:30:17.200Z,101010.25
2023-04-07T00:32:42.849Z,101012.16
2023-04-07T00:35:11.224Z,101013.00
2023-04-07T00:37:36.862Z,101004.72
2023-04-07T00:40:03.378Z,101004.72
2023-04-07T00:42:29.056Z,101004.72
2023-04-07T00:44:54.697Z,101005.84
2023-04-07T00:47:20.363Z,101007.47
2023-04-07T00:49:46.098Z,101004.97
2023-04-07T00:52:11.795Z,101006.66
2023-04-07T00:54:38.842Z,101003.06
2023-04-07T00:57:04.521Z,100996.44
2023-04-07T00:59:31.563Z,101001.97
2023-04-07T01:02:03.510Z,100996.44
2023-04-07T01:04:36.621Z,100986.53
2023-04-07T01:07:05.974Z,100993.69
2023-04-07T01:09:36.824Z,100992.88
2023-04-07T01:12:42.274Z,100993.69
2023-04-07T01:15:10.168Z,100988.41
2023-04-07T01:17:37.902Z,100997.56
2023-04-07T01:20:07.376Z,100988.41
2023-04-07T01:22:39.469Z,100991.19
2023-04-07T01:25:44.934Z,100985.66
2023-04-07T01:28:28.760Z,100985.66
2023-04-07T01:30:56.195Z,100991.19
2023-04-07T01:33:22.543Z,100989.28
2023-04-07T01:35:49.204Z,100984.84
2023-04-07T01:38:15.570Z,100993.94
2023-04-07T01:40:41.396Z,100995.63
2023-04-07T01:43:07.596Z,100987.59
2023-04-07T01:45:35.158Z,100987.59
2023-04-07T01:48:01.059Z,100991.19
2023-04-07T01:50:27.641Z,100990.34
2023-04-07T01:52:53.359Z,100996.69
2023-04-07T01:55:19.254Z,100987.59
2023-04-07T01:57:44.929Z,100990.34
2023-04-07T02:00:11.241Z,100998.63
2023-04-07T02:02:41.213Z,100993.13
2023-04-07T02:05:08.890Z,100992.28
2023-04-07T02:07:40.418Z,100996.69
2023-04-07T02:10:09.655Z,100994.22
2023-04-07T02:12:37.286Z,100991.19
2023-04-07T02:15:03.320Z,100989.53
2023-04-07T02:17:29.517Z,100992.28
2023-04-07T02:19:56.484Z,100991.47
2023-04-07T02:22:22.198Z,100995.88
2023-04-07T02:24:47.857Z,100998.63
2023-04-07T02:27:13.521Z,100990.34
2023-04-07T02:29:39.173Z,100999.75
2023-04-07T02:32:05.632Z,100987.88
2023-04-07T02:34:31.291Z,100995.34
2023-04-07T02:36:56.957Z,101001.41
2023-04-07T02:39:22.657Z,100997.00
2023-04-07T02:41:48.289Z,100994.22
2023-04-07T02:44:13.929Z,100997.00
2023-04-07T02:46:40.540Z,100997.81
2023-04-07T02:49:06.197Z,100999.75
2023-04-07T02:51:31.838Z,101006.09
2023-04-07T02:53:57.615Z,101002.50
2023-04-07T02:56:23.382Z,101005.25
2023-04-07T02:58:49.069Z,101004.44
2023-04-07T03:01:14.766Z,101006.38
2023-04-07T03:03:41.611Z,101006.38
2023-04-07T03:06:07.481Z,101016.28
2023-04-07T03:08:33.142Z,101010.78
2023-04-07T03:10:58.776Z,101016.28
2023-04-07T03:13:24.442Z,101017.41
2023-04-07T03:15:50.335Z,101015.47
2023-04-07T03:18:16.053Z,101013.81
2023-04-07T03:20:41.764Z,101011.06
2023-04-07T03:23:07.674Z,101011.06
2023-04-07T03:25:33.334Z,101016.59
2023-04-07T03:27:59.023Z,101022.94
2023-04-07T03:30:24.749Z,101015.47
2023-04-07T03:32:50.534Z,101022.94
2023-04-07T03:35:16.265Z,101021.00
2023-04-07T03:37:42.027Z,101021.81
2023-04-07T03:40:07.894Z,101016.59
2023-04-07T03:42:33.553Z,101016.59
2023-04-07T03:44:59.239Z,101018.53
2023-04-07T03:47:25.101Z,101011.06
2023-04-07T03:49:50.746Z,101022.94
2023-04-07T03:52:16.940Z,101018.53
2023-04-07T03:54:42.798Z,101020.16
2023-04-07T03:57:08.463Z,101028.44
2023-04-07T03:59:34.868Z,101025.94
2023-04-07T04:02:00.646Z,101030.09
2023-04-07T04:04:26.396Z,101027.63
2023-04-07T04:06:52.108Z,101028.69
2023-04-07T04:09:17.854Z,101038.66
2023-04-07T04:11:43.577Z,101041.41
2023-04-07T04:14:09.230Z,101039.47
2023-04-07T04:16:35.005Z,101040.59
2023-04-07T04:19:00.924Z,101039.72
2023-04-07T04:21:26.647Z,101035.06
2023-04-07T04:23:52.819Z,101038.66
2023-04-07T04:26:18.844Z,101036.97
2023-04-07T04:28:44.499Z,101053.53
2023-04-07T04:31:10.188Z,101046.94
2023-04-07T04:33:35.840Z,101043.34
2023-04-07T04:36:01.474Z,101054.38
2023-04-07T04:38:27.142Z,101057.97
2023-04-07T04:40:52.787Z,101061.81
2023-04-07T04:43:18.433Z,101051.63
2023-04-07T04:45:44.121Z,101058.78
2023-04-07T04:48:10.594Z,101059.03
2023-04-07T04:50:36.258Z,101069.81
2023-04-07T04:53:02.126Z,101068.19
2023-04-07T04:55:27.835Z,101065.41
2023-04-07T04:57:53.471Z,101068.19
2023-04-07T05:00:19.646Z,101065.41
2023-04-07T05:02:46.158Z,101070.06
2023-04-07T05:05:12.278Z,101066.25
2023-04-07T05:07:39.596Z,101072.84
2023-04-07T05:10:06.924Z,101065.41
2023-04-07T05:12:32.653Z,101075.59
2023-04-07T05:14:58.417Z,101070.94
2023-04-07T05:17:24.103Z,101075.59
2023-04-07T05:19:49.774Z,101080.03
2023-04-07T05:22:15.718Z,101086.63
2023-04-07T05:24:41.409Z,101084.72
2023-04-07T05:27:07.062Z,101086.63
2023-04-07T05:29:32.719Z,101092.16
2023-04-07T05:31:58.440Z,101100.41
2023-04-07T05:34:24.141Z,101094.91
2023-04-07T05:36:50.249Z,101095.75
2023-04-07T05:39:15.907Z,101098.75
2023-04-07T05:41:41.542Z,101100.41
2023-04-07T05:44:07.211Z,101104.03
2023-04-07T05:46:32.845Z,101105.94
2023-04-07T05:49:00.808Z,101100.41
2023-04-07T05:51:30.721Z,101106.78
2023-04-07T05:53:56.419Z,101105.94
2023-04-07T05:56:22.209Z,101110.59
2023-04-07T05:58:47.859Z,101115.28
2023-04-07T06:01:13.496Z,101116.13
2023-04-07T06:03:40.305Z,101116.13
2023-04-07T06:06:06.220Z,101125.25
2023-04-07T06:08:31.859Z,101128.88
2023-04-07T06:10:57.549Z,101129.09
2023-04-07T06:13:23.240Z,101126.31
2023-04-07T06:15:48.931Z,101132.66
2023-04-07T06:18:14.779Z,101129.91
2023-04-07T06:20:40.477Z,101132.66
2023-04-07T06:23:06.232Z,101136.28
2023-04-07T06:25:31.874Z,101137.38
2023-04-07T06:27:57.522Z,101135.44
2023-04-07T06:30:23.208Z,101137.38
2023-04-07T06:32:48.892Z,101139.03
2023-04-07T06:35:14.572Z,101139.91
2023-04-07T06:37:40.240Z,101142.06
2023-04-07T06:40:06.922Z,101140.94
2023-04-07T06:42:32.579Z,101139.31
2023-04-07T06:44:58.220Z,101150.09
2023-04-07T06:47:23.895Z,101151.97
2023-04-07T06:49:49.666Z,101150.09
2023-04-07T06:52:15.315Z,101149.22
2023-04-07T06:54:41.070Z,101153.09
2023-04-07T06:57:11.091Z,101154.75
2023-04-07T06:59:37.707Z,101156.69
2023-04-07T07:02:03.735Z,101162.19
2023-04-07T07:04:29.674Z,101161.38
2023-04-07T07:06:55.345Z,101169.66
2023-04-07T07:09:21.442Z,101171.28
2023-04-07T07:11:47.084Z,101177.66
2023-04-07T07:14:12.835Z,101176.81
2023-04-07T07:16:38.495Z,101178.75
2023-04-07T07:19:04.141Z,101175.97
2023-04-07T07:21:31.046Z,101174.91
2023-04-07T07:23:56.702Z,101180.69
2023-04-07T07:26:22.354Z,101179.56
2023-04-07T07:28:48.103Z,101186.19
2023-04-07T07:31:14.891Z,101179.56
2023-04-07T07:33:42.988Z,101186.19
2023-04-07T07:36:09.037Z,101187.03
2023-04-07T07:38:36.069Z,101185.38
2023-04-07T07:41:03.056Z,101183.44
2023-04-07T07:43:28.709Z,101191.72
2023-04-07T07:45:54.513Z,101198.06
2023-04-07T07:48:20.281Z,101196.41
2023-04-07T07:50:46.317Z,101196.41
2023-04-07T07:53:11.941Z,101202.75
2023-04-07T07:55:37.609Z,101203.56
2023-04-07T07:58:03.248Z,101209.09
2023-04-07T08:00:28.953Z,101208.25
2023-04-07T08:02:54.668Z,101209.09
2023-04-07T08:05:20.689Z,101208.25
2023-04-07T08:07:46.351Z,101208.25
2023-04-07T08:10:12.686Z,101212.97
2023-04-07T08:12:38.855Z,101222.06
2023-04-07T08:15:05.362Z,101212.69
2023-04-07T08:17:31.193Z,101222.06
2023-04-07T08:19:56.873Z,101224.81
2023-04-07T08:22:22.560Z,101230.34
2023-04-07T08:24:48.255Z,101225.66
2023-04-07T08:27:13.919Z,101224.00
2023-04-07T08:29:39.623Z,101225.09
2023-04-07T08:32:05.308Z,101227.56
2023-04-07T08:34:30.958Z,101233.91
2023-04-07T08:36:56.602Z,101233.38
2023-04-07T08:39:24.542Z,101240.53
2023-04-07T08:41:50.711Z,101240.53
2023-04-07T08:44:17.334Z,101244.13
2023-04-07T08:46:44.035Z,101249.66
2023-04-07T08:49:13.021Z,101252.41
2023-04-07T08:51:45.683Z,101253.22
2023-04-07T08:54:13.373Z,101249.66
2023-04-07T08:56:40.852Z,101259.84
2023-04-07T08:59:07.690Z,101260.69
2023-04-07T09:01:35.021Z,101257.91
2023-04-07T09:04:02.297Z,101263.44
2023-04-07T09:06:31.144Z,101269.78
2023-04-07T09:08:57.599Z,101266.19
2023-04-07T09:11:23.895Z,101257.91
2023-04-07T09:13:50.542Z,101262.63
2023-04-07T09:16:16.365Z,101266.47
2023-04-07T09:18:42.272Z,101268.97
2023-04-07T09:21:08.216Z,101268.13
2023-04-07T09:23:35.384Z,101273.66
2023-04-07T09:26:21.997Z,101268.97
2023-04-07T09:28:58.619Z,101274.47
2023-04-07T09:31:45.860Z,101274.47
2023-04-07T09:34:28.231Z,101270.06
2023-04-07T09:36:54.633Z,101273.66
2023-04-07T09:39:20.457Z,101279.16
2023-04-07T09:41:46.273Z,101275.59
2023-04-07T09:44:12.089Z,101268.41
2023-04-07T09:46:58.009Z,101263.44
2023-04-07T09:49:24.706Z,101267.31
2023-04-07T09:52:04.342Z,101270.88
2023-04-07T09:54:40.312Z,101279.16
2023-04-07T09:57:07.639Z,101276.41
2023-04-07T09:59:35.633Z,101286.63
2023-04-07T10:02:01.862Z,101281.94
2023-04-07T10:04:28.641Z,101290.19
2023-04-07T10:06:55.187Z,101281.94
2023-04-07T10:09:23.282Z,101273.66
2023-04-07T10:11:50.299Z,101286.34
2023-04-07T10:14:17.184Z,101288.28
2023-04-07T10:16:43.607Z,101288.28
2023-04-07T10:19:10.049Z,101290.19
2023-04-07T10:21:38.725Z,101290.19
2023-04-07T10:24:32.868Z,101292.97
2023-04-07T10:27:01.628Z,101299.31
2023-04-07T10:29:28.948Z,101289.38
2023-04-07T10:31:54.732Z,101304.00
2023-04-07T10:37:24.888Z,101297.66
2023-04-07T10:40:11.820Z,101296.00
2023-04-07T10:45:14.964Z,101306.75
2023-04-07T10:50:35.666Z,101303.44
2023-04-07T10:53:07.580Z,101316.97
2023-04-07T10:58:28.625Z,101310.63
2023-04-07T11:03:59.303Z,101315.03
2023-04-07T11:06:26.261Z,101318.91
2023-04-07T11:08:51.913Z,101314.19
2023-04-07T11:11:36.689Z,101306.75
2023-04-07T11:14:02.421Z,101321.66
2023-04-07T11:16:37.479Z,101319.72
2023-04-07T11:19:03.171Z,101330.75
2023-04-07T11:21:29.666Z,101321.66
2023-04-07T11:23:55.439Z,101327.16
2023-04-07T11:26:21.383Z,101324.13
2023-04-07T11:28:48.830Z,101331.59
2023-04-07T11:31:25.848Z,101328.81
2023-04-07T11:33:54.450Z,101335.16
2023-04-07T11:36:30.256Z,101330.75
2023-04-07T11:38:57.493Z,101331.59
2023-04-07T11:41:24.468Z,101334.34
2023-04-07T11:44:03.514Z,101331.59
2023-04-07T11:46:29.235Z,101339.84
2023-04-07T11:48:54.921Z,101338.75
2023-04-07T11:51:23.073Z,101341.50
2023-04-07T11:53:56.114Z,101342.63
2023-04-07T11:56:22.163Z,101344.56
2023-04-07T11:58:50.106Z,101350.91
2023-04-07T12:01:15.771Z,101351.72
2023-04-07T12:03:58.492Z,101355.59
2023-04-07T12:06:34.570Z,101360.00
2023-04-07T12:09:01.364Z,101347.03
2023-04-07T12:11:27.518Z,101350.06
2023-04-07T12:13:53.462Z,101354.47
2023-04-07T12:16:21.258Z,101370.22
2023-04-07T12:18:47.018Z,101355.59
2023-04-07T12:21:12.715Z,101363.88
2023-04-07T12:23:38.367Z,101359.44
2023-04-07T12:26:04.061Z,101361.94
2023-04-07T12:28:29.773Z,101371.03
2023-04-07T12:30:55.429Z,101369.38
2023-04-07T12:33:21.289Z,101366.63
2023-04-07T12:35:46.968Z,101372.13
2023-04-07T12:38:13.132Z,101372.13
2023-04-07T12:40:38.778Z,101371.31
2023-04-07T12:43:05.113Z,101370.22
2023-04-07T12:45:31.191Z,101374.06
2023-04-07T12:47:57.003Z,101380.41
2023-04-07T12:50:24.346Z,101386.75
2023-04-07T12:52:51.265Z,101384.00
2023-04-07T12:55:17.367Z,101384.81
2023-04-07T12:57:43.215Z,101385.09
2023-04-07T13:00:09.358Z,101383.16
2023-04-07T13:02:37.022Z,101384.00
2023-04-07T13:05:03.878Z,101385.94
2023-04-07T13:07:29.856Z,101384.00
2023-04-07T13:09:56.395Z,101387.88
2023-04-07T13:12:22.776Z,101374.91
2023-04-07T13:14:59.201Z,101386.75
2023-04-07T13:17:25.682Z,101382.06
2023-04-07T13:19:51.758Z,101384.81
2023-04-07T13:22:18.503Z,101376.00
2023-04-07T13:24:47.547Z,101385.09
2023-04-07T13:27:13.194Z,101378.47
2023-04-07T13:29:38.838Z,101384.81
2023-04-07T13:32:07.391Z,101387.88
2023-04-07T13:34:35.257Z,101386.75
2023-04-07T13:37:02.321Z,101383.16
2023-04-07T13:39:28.304Z,101387.59
2023-04-07T13:41:53.960Z,101384.00
2023-04-07T13:44:19.890Z,101391.44
2023-04-07T13:46:45.787Z,101393.09
2023-04-07T13:49:11.491Z,101390.34
2023-04-07T13:51:37.145Z,101398.63
2023-04-07T13:54:02.799Z,101395.03
2023-04-07T13:56:28.443Z,101400.56
2023-04-07T13:58:54.250Z,101400.56
2023-04-07T14:01:19.964Z,101406.91
2023-04-07T14:03:47.374Z,101400.56
2023-04-07T14:06:13.274Z,101406.06
2023-04-07T14:08:38.906Z,101406.91
2023-04-07T14:11:04.542Z,101408.81
2023-04-07T14:13:30.392Z,101398.91
2023-04-07T14:15:56.092Z,101411.59
2023-04-07T14:18:22.758Z,101407.72
2023-04-07T14:20:48.651Z,101408.81
2023-04-07T14:23:18.515Z,101406.91
2023-04-07T14:25:49.063Z,101408.81
2023-04-07T14:28:14.725Z,101414.34
2023-04-07T14:30:40.391Z,101408.00
2023-04-07T14:33:06.081Z,101415.19
2023-04-07T14:35:31.771Z,101417.09
2023-04-07T14:37:57.467Z,101408.81
2023-04-07T14:40:23.134Z,101410.47
2023-04-07T14:42:49.049Z,101403.31
2023-04-07T14:45:15.769Z,101410.47
2023-04-07T14:47:41.453Z,101406.06
2023-04-07T14:50:07.567Z,101401.38
2023-04-07T14:52:33.234Z,101406.06
2023-04-07T14:55:00.462Z,101411.59
2023-04-07T14:57:26.326Z,101402.22
2023-04-07T14:59:51.960Z,101400.56
2023-04-07T15:02:17.705Z,101412.41
2023-04-07T15:04:43.400Z,101405.78
2023-04-07T15:07:09.145Z,101407.72
2023-04-07T15:09:34.914Z,101412.41
2023-04-07T15:12:01.305Z,101408.81
2023-04-07T15:14:27.342Z,101417.94
2023-04-07T15:16:53.019Z,101420.69
2023-04-07T15:19:18.678Z,101423.44
2023-04-07T15:21:44.394Z,101424.28
2023-04-07T15:24:10.052Z,101425.38
2023-04-07T15:26:35.703Z,101423.44
2023-04-07T15:29:01.366Z,101428.13
2023-04-07T15:31:28.956Z,101428.97
2023-04-07T15:33:54.744Z,101426.22
2023-04-07T15:36:20.456Z,101426.22
2023-04-07T15:38:46.126Z,101429.78
2023-04-07T15:41:15.097Z,101434.50
2023-04-07T15:43:40.725Z,101432.56
2023-04-07T15:46:06.371Z,101428.13
2023-04-07T15:48:32.038Z,101438.34
2023-04-07T15:50:57.696Z,101443.59
2023-04-07T15:53:23.479Z,101444.69
2023-04-07T15:55:49.128Z,101446.34
2023-04-07T15:58:14.769Z,101452.69
2023-04-07T16:00:40.675Z,101451.03
2023-04-07T16:03:06.502Z,101456.56
2023-04-07T16:05:32.320Z,101457.38
2023-04-07T16:07:58.076Z,101462.91
2023-04-07T16:10:23.768Z,101459.31
2023-04-07T16:12:49.443Z,101464.84
2023-04-07T16:15:22.589Z,101460.16
2023-04-07T16:17:58.335Z,101464.84
2023-04-07T16:20:24.032Z,101465.66
2023-04-07T16:22:49.680Z,101468.41
2023-04-07T16:25:16.061Z,101466.50
2023-04-07T16:27:43.088Z,101461.25
2023-04-07T16:30:10.149Z,101464.00
2023-04-07T16:32:35.906Z,101469.25
2023-04-07T16:35:02.270Z,101467.34
2023-04-07T16:37:29.429Z,101462.91
2023-04-07T16:39:56.819Z,101467.34
2023-04-07T16:42:24.762Z,101474.75
2023-04-07T16:44:50.397Z,101473.13
2023-04-07T16:47:16.055Z,101476.97
2023-04-07T16:49:41.700Z,101482.22
2023-04-07T16:52:07.343Z,101475.88
2023-04-07T16:54:35.067Z,101482.22
2023-04-07T16:57:00.723Z,101477.53
2023-04-07T16:59:26.453Z,101486.66
2023-04-07T17:01:52.167Z,101486.91
2023-04-07T17:04:18.331Z,101491.31
2023-04-07T17:06:44.005Z,101492.41
2023-04-07T17:09:15.020Z,101492.41
2023-04-07T17:11:41.190Z,101494.34
2023-04-07T17:14:07.069Z,101500.47
2023-04-07T17:16:32.720Z,101499.59
2023-04-07T17:18:58.359Z,101501.53
2023-04-07T17:21:24.014Z,101501.53
2023-04-07T17:23:49.770Z,101506.22
2023-04-07T17:26:15.801Z,101511.72
2023-04-07T17:28:41.445Z,101516.16
2023-04-07T17:31:07.117Z,101524.44
2023-04-07T17:33:32.856Z,101529.94
2023-04-07T17:36:02.117Z,101525.53
2023-04-07T17:38:27.865Z,101535.47
2023-04-07T17:40:57.799Z,101535.75
2023-04-07T17:43:23.718Z,101549.25
2023-04-07T17:45:49.361Z,101542.91
2023-04-07T17:48:14.999Z,101546.50
2023-04-07T17:50:41.270Z,101551.19
2023-04-07T17:53:07.003Z,101552.00
2023-04-07T17:55:32.652Z,101553.94
2023-04-07T17:58:00.186Z,101565.81
2023-04-07T18:00:26.686Z,101559.47
2023-04-07T18:02:53.465Z,101566.66
2023-04-07T18:05:19.719Z,101563.06
2023-04-07T18:07:47.294Z,101567.75
2023-04-07T18:10:13.432Z,101574.09
2023-04-07T18:12:39.859Z,101579.59
2023-04-07T18:15:06.278Z,101570.50
2023-04-07T18:17:32.179Z,101578.78
2023-04-07T18:19:57.986Z,101576.84
2023-04-07T18:22:23.670Z,101578.78
2023-04-07T18:24:50.783Z,101583.22
2023-04-07T18:27:16.666Z,101594.25
2023-04-07T18:29:42.595Z,101589.81
2023-04-07T18:32:08.271Z,101588.75
2023-04-07T18:34:33.940Z,101593.41
2023-04-07T18:37:00.289Z,101599.78
2023-04-07T18:39:27.263Z,101601.69
2023-04-07T18:41:53.825Z,101609.97
2023-04-07T18:44:19.454Z,101610.81
2023-04-07T18:46:46.240Z,101601.69
2023-04-07T18:49:12.297Z,101611.69
2023-04-07T18:51:38.162Z,101616.34
2023-04-07T18:54:03.923Z,101611.88
2023-04-07T18:56:30.645Z,101618.22
2023-04-07T18:58:56.282Z,101626.50
2023-04-07T19:01:22.158Z,101631.00
2023-04-07T19:03:48.369Z,101629.28
2023-04-07T19:06:14.892Z,101640.31
2023-04-07T19:08:40.944Z,101628.44
2023-04-07T19:11:06.733Z,101633.97
2023-04-07T19:13:32.369Z,101640.31
2023-04-07T19:15:58.113Z,101649.44
2023-04-07T19:18:23.974Z,101646.94
2023-04-07T19:20:49.632Z,101650.50
2023-04-07T19:23:15.288Z,101657.72
2023-04-07T19:25:42.582Z,101654.97
2023-04-07T19:28:09.491Z,101652.19
2023-04-07T19:30:35.238Z,101647.75
2023-04-07T19:33:00.942Z,101656.03
2023-04-07T19:35:26.653Z,101663.25
2023-04-07T19:37:52.889Z,101666.00
2023-04-07T19:40:18.784Z,101672.38
2023-04-07T19:42:44.892Z,101668.75
2023-04-07T19:45:10.667Z,101668.75
2023-04-07T19:47:36.935Z,101665.13
2023-04-07T19:50:03.534Z,101675.97
2023-04-07T19:52:30.263Z,101673.41
2023-04-07T19:54:56.342Z,101677.91
2023-04-07T19:57:21.992Z,101678.94
2023-04-07T19:59:47.862Z,101675.13
2023-04-07T20:02:13.742Z,101685.31
2023-04-07T20:04:39.578Z,101680.66
2023-04-07T20:07:05.236Z,101673.41
2023-04-07T20:09:31.050Z,101684.25
2023-04-07T20:11:56.751Z,101687.22
2023-04-07T20:14:23.004Z,101691.69
2023-04-07T20:16:49.056Z,101686.16
2023-04-07T20:19:14.722Z,101687.22
2023-04-07T20:21:40.797Z,101683.41
2023-04-07T20:24:06.915Z,101678.94
2023-04-07T20:26:32.584Z,101689.13
2023-04-07T20:28:58.374Z,101687.22
2023-04-07T20:31:24.067Z,101688.06
2023-04-07T20:33:49.734Z,101689.97
2023-04-07T20:36:15.381Z,101691.91
2023-04-07T20:38:43.623Z,101693.59
2023-04-07T20:41:12.017Z,101699.09
2023-04-07T20:43:37.584Z,101702.94
2023-04-07T20:46:03.361Z,101702.94
2023-04-07T20:48:29.063Z,101705.69
2023-04-07T20:50:54.718Z,101715.66
2023-04-07T20:53:21.356Z,101704.88
2023-04-07T20:55:47.534Z,101703.75
2023-04-07T20:58:13.246Z,101713.75
2023-04-07T21:00:39.440Z,101710.16
2023-04-07T21:03:05.474Z,101716.72
2023-04-07T21:05:31.235Z,101718.41
2023-04-07T21:07:56.867Z,101718.41
2023-04-07T21:10:22.531Z,101720.13
2023-04-07T21:12:48.170Z,101718.41
2023-04-07T21:15:14.283Z,101716.53
2023-04-07T21:17:39.958Z,101717.56
2023-04-07T21:20:06.933Z,101723.06
2023-04-07T21:22:32.590Z,101716.53
2023-04-07T21:24:58.230Z,101726.69
2023-04-07T21:27:23.959Z,101725.00
2023-04-07T21:29:49.748Z,101725.84
2023-04-07T21:32:15.413Z,101731.97
2023-04-07T21:34:41.072Z,101730.31
2023-04-07T21:37:07.128Z,101728.59
2023-04-07T21:39:33.087Z,101732.22
2023-04-07T21:41:58.840Z,101733.06
2023-04-07T21:44:25.600Z,101730.31
2023-04-07T21:46:51.771Z,101734.13
2023-04-07T21:49:21.158Z,101733.91
2023-04-07T21:51:47.648Z,101741.34
2023-04-07T21:54:13.381Z,101738.59
2023-04-07T21:56:39.658Z,101735.84
2023-04-07T21:59:05.406Z,101732.22
2023-04-07T22:01:31.238Z,101736.88
2023-04-07T22:03:57.081Z,101734.97
2023-04-07T22:06:22.837Z,101733.91
2023-04-07T22:11:20.651Z,101734.97
2023-04-07T22:13:46.284Z,101732.22
2023-04-07T22:16:12.246Z,101744.13
2023-04-07T22:18:38.056Z,101734.97
2023-04-07T22:21:04.480Z,101737.72
2023-04-07T22:23:30.353Z,101734.13
2023-04-07T22:25:55.998Z,101741.34
2023-04-07T22:28:21.640Z,101740.25
2023-04-07T22:30:47.281Z,101732.22
2023-04-07T22:33:12.918Z,101733.06
2023-04-07T22:35:38.624Z,101738.59
2023-04-07T22:38:04.286Z,101752.41
2023-04-07T22:40:30.180Z,101741.34
2023-04-07T22:42:55.816Z,101747.91
2023-04-07T22:45:21.476Z,101740.50
2023-04-07T22:47:47.155Z,101744.13
2023-04-07T22:50:12.905Z,101750.47
2023-04-07T22:52:38.533Z,101751.53
2023-04-07T22:55:04.656Z,101746.00
2023-04-07T22:57:30.307Z,101748.78
2023-04-07T22:59:56.292Z,101753.22
2023-04-07T23:02:22.383Z,101757.66
2023-04-07T23:04:48.812Z,101755.97
2023-04-07T23:07:15.257Z,101753.44
2023-04-07T23:09:41.102Z,101753.44
2023-04-07T23:12:06.753Z,101763.44
2023-04-07T23:14:32.390Z,101758.75
2023-04-07T23:16:58.081Z,101761.72
2023-04-07T23:19:23.776Z,101764.47
2023-04-07T23:21:49.440Z,101768.94
2023-04-07T23:24:15.332Z,101758.75
2023-04-07T23:26:40.964Z,101769.78
2023-04-07T23:29:06.588Z,101768.09
2023-04-07T23:31:32.279Z,101772.53
2023-04-07T23:33:58.841Z,101761.50
2023-04-07T23:36:24.480Z,101773.59
2023-04-07T23:38:50.691Z,101772.75
2023-04-07T23:41:16.598Z,101774.47
2023-04-07T23:43:42.226Z,101771.72
2023-04-07T23:46:07.970Z,101778.06
2023-04-07T23:48:34.701Z,101774.47
2023-04-07T23:51:00.379Z,101783.56
2023-04-07T23:53:26.020Z,101779.97
2023-04-07T23:55:51.691Z,101781.88
2023-04-07T23:58:17.327Z,101782.75
